AirNav   Phillips 66 Aviation Fuel
 
 305 users online  

0KS7 Mono Aircraft Airport
Cheney, Kansas, USA

GOING TO CHENEY?


FAA INFORMATION EFFECTIVE 12 SEPTEMBER 2019

Location

FAA Identifier: 0KS7
Lat/Long: 37-42-00.6700N 097-53-13.9900W
37-42.011167N 097-53.233167W
37.7001861,-97.8872194
(estimated)
Elevation: 1510 ft. / 460 m (estimated)
Variation: 07E (1985)
From city: 10 miles NW of CHENEY, KS
Time zone: UTC -5 (UTC -6 during Standard Time)
Zip code: 67025

Airport Operations

Airport use: Private use. Permission required prior to landing
Activation date: 05/1991
Control tower: no
ARTCC: KANSAS CITY CENTER
FSS: WICHITA FLIGHT SERVICE STATION
Attendance: CONTINUOUS
Segmented circle: no

Airport Communications

WX AWOS-3 at 9K8 (11 nm W): 119.325 (620-532-1272)

Nearby radio navigation aids

VOR radial/distance  VOR name  Freq  Var
ICTr252/14.7WICHITA VORTAC113.8007E
HUTr169/17.9HUTCHINSON VOR/DME116.8004E
ANYr016/35.2ANTHONY VORTAC112.9007E

 
NDB name  Hdg/Dist  Freq  Var  ID
NEWTON227/36.428106EEWK . .-- -.-

Airport Services

Fuel available: MOGAS

Runway Information

Runway 18/36

Dimensions: 2000 x 75 ft. / 610 x 23 m
Surface: turf
RUNWAY 18  RUNWAY 36
Latitude: 37-42.175833N37-41.846333N
Longitude: 097-53.231167W097-53.234833W
Elevation: 1510.0 ft.1503.0 ft.
Traffic pattern: leftleft
Runway heading: 173 magnetic, 180 true353 magnetic, 360 true

Airport Ownership and Management from official FAA records

Ownership: Privately-owned
Owner: EDWARD & LEO SAURENMAN
RR 2 BOX 186A
CHENEY, KANSAS 67025
Phone 316-297-4411
Manager: EDWARD & LEO SAURENMAN
RR 2 BOX 186A
CHENEY, KANSAS 67025
Phone 316-297-4411

Additional Remarks

E11 PRVDD APCH MAINT FOR A 20:1 GLIDE SLOPE; MAINT TRANSITIONAL SURFACE FOR A 7:1 SLOPE.
FOR CD CTC WICHITA APCH AT 316-350-1520.

Instrument Procedures

There are no published instrument procedures at 0KS7.

Some nearby airports with instrument procedures:

9K8 - Kingman Airport - Clyde Cessna Field (11 nm W)
KICT - Wichita Dwight D Eisenhower National Airport (22 nm E)
KHUT - Hutchinson Regional Airport (22 nm N)
8K2 - Harper Municipal Airport (26 nm S)
KIAB - Mc Connell Air Force Base (30 nm E)
 
Loc | Ops | Rwys | IFR | FBO | Links
Com | Nav | Svcs | Stats | Notes

Kansas City Aviation Department
 
Area around 0KS7 (Mono Aircraft Airport)
 
Road maps at: MapQuest Bing Google
 
Aerial photo
No photo
 
Sectional chart

 
Airport distance calculator
Flying to Mono Aircraft Airport? Find the distance to fly.

From to 0KS7

Sunrise and sunset
Times for 18-Sep-2019
 Local
(UTC-5)
 Zulu
(UTC)
Morning civil twilight06:5111:51
Sunrise07:1712:17
Sunset19:3400:34
Evening civil twilight20:0101:01

Current date and time
Zulu (UTC)  18-Sep-2019 08:01:58
Local (UTC-5)  18-Sep-2019 03:01:58
 
METAR
KICT 
22nm E 
180753Z 16007KT 10SM SCT250 23/20 A2994 RMK AO2 SLP122 T02330200
KHUT 
22nm N 
180752Z AUTO 14006KT 10SM CLR 22/19 A2994 RMK AO2 SLP112 T02170189
KIAB 
30nm E 
180756Z AUTO 12010KT 10SM CLR 23/19 A2995 RMK AO2 SLP129 T02320187 $
KBEC 
32nm E 
180755Z AUTO 15007KT 10SM CLR 22/20 A2995 RMK AO2 T02200195
KAAO 
32nm E 
180754Z AUTO 16008KT 10SM CLR 23/20 A2995 RMK AO2 SLP126 T02280200
KEWK 
36nm NE 
180756Z AUTO 15008KT 10SM 21/19 A2996 RMK AO2 SLP129 T02110194 $
K1K1 
37nm E 
180755Z AUTO 18011KT 10SM CLR 22/20 A2996 RMK AO2 T02150195
K3AU 
38nm E 
180755Z AUTO 14004KT 10SM CLR 21/20 A2996 RMK AO2
KP28 
40nm SW 
180756Z AUTO 14004KT 23/18 A2993 RMK AO1 SLP118 T02280183
KPTT 
41nm W 
180755Z AUTO 18012KT 10SM CLR 24/17 A2994 RMK AO2 T02350168
TAF
KICT 
22nm E 
180522Z 1806/1906 16008KT P6SM SCT250 FM181400 18015G22KT P6SM FEW060 FM190100 16008KT P6SM FEW100
KHUT 
22nm N 
180522Z 1806/1906 16008KT P6SM SCT250 FM181400 18015G22KT P6SM FEW060 FM190100 16008KT P6SM FEW100
NOTAMs
Click for the latest NOTAMs
NOTAMs are issued by the DoD/FAA and will open in a separate window not controlled by AirNav.

 

 
 

Would you like to see your business listed on this page?

 If your business provides an interesting product or service to pilots, flight crews, aircraft, or users of the Mono Aircraft Airport, you should consider listing it here.  To start the listing process, click on the button below
 
Add a business
 

Other Pages about Mono Aircraft Airport

Update a link
 
Copyright © AirNav, LLC. All rights reserved. Privacy Policy  Contact